Willet, South Dakota
Current Conditions -  °F | °C
As of 8:35 AM on Sunday 23 Nov 2014 (Local Time) from KSPF Reporting Station
Few Clouds Few Clouds  
Wind Chill: 23°   Ceiling: Unl
Heat Index: 34°   Visibility: 10mi
Dew Point: 19°   Wind: 18mph
Humidity: 56%   Direction: 290°WNW
Pressure: 29.74"   Gusts: 33mph
Location:  44.9293°N, 103.753°W
Report Text: KSPF 231535Z AUTO 29016G29KT 10SM FEW070 01/M07 A2974 RMK AO2
Loading
Personal Weather Stations






























Interactive Weather Map New forecast layout! Learn more

10-Day Weather Forecast

Advertisements
Track Severe Weather on mobile